KCPS

St Louis Downtown Airport

Cahokia/St Louis, Illinois, USA
METAR KCPS 231153Z 00000KT 10SM CLR 04/03 A3025 RMK AO2 SLP244 T00390028 10094 20033 51016
Observed Flight Rules
Oct-23 @ 11:53 UTC (59 minutes ago) Visual Flight Rules
Visibility Clouds
10 miles
  • Clear skies
Temperatures Readings
Current 4°C / 39°F
Dewpoint 3°C / 37°F
Humidity 93%
Altimeter 30.25" Hg
Pressure 1024.4 hPa
Elevation 126
METAR KCPS 231153Z 00000KT 10SM CLR 04/03 A3025 RMK AO2 SLP244 T00390028 10094 20033 51016
Observed Flight Rules
Oct-23 @ 11:53 UTC
(59 minutes ago)
VFR
Clouds
  • Clear skies
Temperature Dewpoint
4°C / 39°F 3°C / 37°F
Humidity Altimeter Pressure
93% 30.25" Hg 1024.4 hPa